KKLS/KLS METAR and TAF weather

Enter ICAO airport designator
Station Type Date Time Source
KKLS METAR 2019/07/20 04:56 UTC NOAA

KKLS 200456Z AUTO VRB04KT 10SM CLR 17/12 A3008 RMK AO2 SLP190 T01720122


Station Type Date Time Source
KKLS Decoded METAR 2019/07/20 04:56 UTC NOAA

Kelso, Kelso-Longview Airport, WA, United States (KKLS) 46-07N 122-54W
Jul 20, 2019 - 12:56 AM EDT / 2019.07.20 0456 UTC
Wind: Variable at 5 MPH (4 KT):0
Visibility: 10 mile(s):0
Sky conditions: clear
Temperature: 63.0 F (17.2 C)
Dew Point: 54.0 F (12.2 C)
Relative Humidity: 72%
Pressure (altimeter): 30.08 in. Hg (1018 hPa)
ob: KKLS 200456Z AUTO VRB04KT 10SM CLR 17/12 A3008 RMK AO2 SLP190 T01720122
cycle: 5

Station Type Date Time Source
KKLS TAF UTC NOAA

Error!

Example: see airport list